sensor_id;sensor_type;location;lat;lon;timestamp;temperature;humidity
4964;DHT22;2497;47.410;9.740;2023-06-19T00:01:42;20.30;99.90
4964;DHT22;2497;47.410;9.740;2023-06-19T00:04:09;20.20;99.90
4964;DHT22;2497;47.410;9.740;2023-06-19T00:06:38;20.30;99.90
4964;DHT22;2497;47.410;9.740;2023-06-19T00:09:06;20.30;99.90
4964;DHT22;2497;47.410;9.740;2023-06-19T00:11:39;20.30;99.90
4964;DHT22;2497;47.410;9.740;2023-06-19T00:14:09;20.30;99.90
4964;DHT22;2497;47.410;9.740;2023-06-19T00:16:36;20.20;99.90
4964;DHT22;2497;47.410;9.740;2023-06-19T00:19:03;20.30;99.90
4964;DHT22;2497;47.410;9.740;2023-06-19T00:21:32;20.20;99.90
4964;DHT22;2497;47.410;9.740;2023-06-19T00:24:00;20.20;99.90
4964;DHT22;2497;47.410;9.740;2023-06-19T00:26:28;20.20;99.90
4964;DHT22;2497;47.410;9.740;2023-06-19T00:28:55;20.20;99.90
4964;DHT22;2497;47.410;9.740;2023-06-19T00:31:22;20.20;99.90
4964;DHT22;2497;47.410;9.740;2023-06-19T00:33:52;20.20;99.90
4964;DHT22;2497;47.410;9.740;2023-06-19T00:36:20;20.20;99.90
4964;DHT22;2497;47.410;9.740;2023-06-19T00:38:49;20.10;99.90
4964;DHT22;2497;47.410;9.740;2023-06-19T00:41:17;20.10;99.90
4964;DHT22;2497;47.410;9.740;2023-06-19T00:43:45;20.10;99.90
4964;DHT22;2497;47.410;9.740;2023-06-19T00:46:14;20.10;99.90
4964;DHT22;2497;47.410;9.740;2023-06-19T00:48:41;20.10;99.90
4964;DHT22;2497;47.410;9.740;2023-06-19T00:51:08;20.20;99.90
4964;DHT22;2497;47.410;9.740;2023-06-19T00:53:36;20.20;99.90
4964;DHT22;2497;47.410;9.740;2023-06-19T00:56:04;20.30;99.90
4964;DHT22;2497;47.410;9.740;2023-06-19T00:58:33;20.30;99.90
4964;DHT22;2497;47.410;9.740;2023-06-19T01:01:01;20.20;99.90
4964;DHT22;2497;47.410;9.740;2023-06-19T01:03:30;20.20;99.90
4964;DHT22;2497;47.410;9.740;2023-06-19T01:06:01;20.20;99.90
4964;DHT22;2497;47.410;9.740;2023-06-19T01:08:50;20.20;99.90
4964;DHT22;2497;47.410;9.740;2023-06-19T01:11:24;20.20;99.90
4964;DHT22;2497;47.410;9.740;2023-06-19T01:14:00;20.30;99.90
4964;DHT22;2497;47.410;9.740;2023-06-19T01:16:30;20.30;99.90
4964;DHT22;2497;47.410;9.740;2023-06-19T01:18:58;20.30;99.90
4964;DHT22;2497;47.410;9.740;2023-06-19T01:21:26;20.30;99.90
4964;DHT22;2497;47.410;9.740;2023-06-19T01:23:54;20.30;99.90
4964;DHT22;2497;47.410;9.740;2023-06-19T01:26:23;20.30;99.90
4964;DHT22;2497;47.410;9.740;2023-06-19T01:28:54;20.30;99.90
4964;DHT22;2497;47.410;9.740;2023-06-19T01:31:26;20.30;99.90
4964;DHT22;2497;47.410;9.740;2023-06-19T01:33:56;20.20;99.90
4964;DHT22;2497;47.410;9.740;2023-06-19T01:36:24;20.20;99.90
4964;DHT22;2497;47.410;9.740;2023-06-19T01:38:53;20.20;99.90
4964;DHT22;2497;47.410;9.740;2023-06-19T01:41:23;20.20;99.90
4964;DHT22;2497;47.410;9.740;2023-06-19T01:43:51;20.30;99.90
4964;DHT22;2497;47.410;9.740;2023-06-19T01:46:19;20.30;99.90
4964;DHT22;2497;47.410;9.740;2023-06-19T01:48:46;20.30;99.90
4964;DHT22;2497;47.410;9.740;2023-06-19T01:51:13;20.30;99.90
4964;DHT22;2497;47.410;9.740;2023-06-19T01:53:42;20.30;99.90
4964;DHT22;2497;47.410;9.740;2023-06-19T01:56:13;20.40;99.90
4964;DHT22;2497;47.410;9.740;2023-06-19T01:58:40;20.30;99.90
4964;DHT22;2497;47.410;9.740;2023-06-19T02:01:07;20.30;99.90
4964;DHT22;2497;47.410;9.740;2023-06-19T02:03:35;20.30;99.90
4964;DHT22;2497;47.410;9.740;2023-06-19T02:06:04;20.30;99.90
4964;DHT22;2497;47.410;9.740;2023-06-19T02:08:32;20.30;99.90
4964;DHT22;2497;47.410;9.740;2023-06-19T02:11:01;20.40;99.90
4964;DHT22;2497;47.410;9.740;2023-06-19T02:13:30;20.50;99.90
4964;DHT22;2497;47.410;9.740;2023-06-19T02:16:00;20.40;99.90
4964;DHT22;2497;47.410;9.740;2023-06-19T02:18:27;20.40;99.90
4964;DHT22;2497;47.410;9.740;2023-06-19T02:20:54;20.30;99.90
4964;DHT22;2497;47.410;9.740;2023-06-19T02:23:21;20.10;99.90
4964;DHT22;2497;47.410;9.740;2023-06-19T02:25:48;20.10;99.90
4964;DHT22;2497;47.410;9.740;2023-06-19T02:28:15;20.10;99.90
4964;DHT22;2497;47.410;9.740;2023-06-19T02:30:47;20.00;99.90
4964;DHT22;2497;47.410;9.740;2023-06-19T02:33:14;20.00;99.90
4964;DHT22;2497;47.410;9.740;2023-06-19T02:35:41;20.20;99.90
4964;DHT22;2497;47.410;9.740;2023-06-19T02:38:10;20.10;99.90
4964;DHT22;2497;47.410;9.740;2023-06-19T02:40:38;19.80;99.90
4964;DHT22;2497;47.410;9.740;2023-06-19T02:43:05;19.50;99.90
4964;DHT22;2497;47.410;9.740;2023-06-19T02:45:32;19.40;99.90
4964;DHT22;2497;47.410;9.740;2023-06-19T02:48:01;19.40;99.90
4964;DHT22;2497;47.410;9.740;2023-06-19T02:50:28;19.50;99.90
4964;DHT22;2497;47.410;9.740;2023-06-19T02:52:55;19.50;99.90
4964;DHT22;2497;47.410;9.740;2023-06-19T02:55:22;19.60;99.90
4964;DHT22;2497;47.410;9.740;2023-06-19T02:57:49;19.70;99.90
4964;DHT22;2497;47.410;9.740;2023-06-19T03:00:17;19.70;99.90
4964;DHT22;2497;47.410;9.740;2023-06-19T03:02:44;19.60;99.90
4964;DHT22;2497;47.410;9.740;2023-06-19T03:05:15;19.50;99.90
4964;DHT22;2497;47.410;9.740;2023-06-19T03:07:44;19.50;99.90
4964;DHT22;2497;47.410;9.740;2023-06-19T03:10:12;19.60;99.90
4964;DHT22;2497;47.410;9.740;2023-06-19T03:12:39;19.60;99.90
4964;DHT22;2497;47.410;9.740;2023-06-19T03:15:07;19.70;99.90
4964;DHT22;2497;47.410;9.740;2023-06-19T03:17:43;19.90;99.90
4964;DHT22;2497;47.410;9.740;2023-06-19T03:20:11;19.70;99.90
4964;DHT22;2497;47.410;9.740;2023-06-19T03:22:42;19.70;99.90
4964;DHT22;2497;47.410;9.740;2023-06-19T03:25:10;19.70;99.90
4964;DHT22;2497;47.410;9.740;2023-06-19T03:27:46;19.60;99.90
4964;DHT22;2497;47.410;9.740;2023-06-19T03:30:15;19.50;99.90
4964;DHT22;2497;47.410;9.740;2023-06-19T03:32:50;19.50;99.90
4964;DHT22;2497;47.410;9.740;2023-06-19T03:35:19;19.40;99.90
4964;DHT22;2497;47.410;9.740;2023-06-19T03:37:51;19.40;99.90
4964;DHT22;2497;47.410;9.740;2023-06-19T03:40:26;19.40;99.90
4964;DHT22;2497;47.410;9.740;2023-06-19T03:42:59;19.40;99.90
4964;DHT22;2497;47.410;9.740;2023-06-19T03:45:29;19.40;99.90
4964;DHT22;2497;47.410;9.740;2023-06-19T03:47:58;19.40;99.90
4964;DHT22;2497;47.410;9.740;2023-06-19T03:50:42;19.40;99.90
4964;DHT22;2497;47.410;9.740;2023-06-19T03:53:12;19.50;99.90
4964;DHT22;2497;47.410;9.740;2023-06-19T03:55:39;19.50;99.90
4964;DHT22;2497;47.410;9.740;2023-06-19T03:58:11;19.70;99.90
4964;DHT22;2497;47.410;9.740;2023-06-19T04:00:38;19.70;99.90
4964;DHT22;2497;47.410;9.740;2023-06-19T04:03:06;19.70;99.90
4964;DHT22;2497;47.410;9.740;2023-06-19T04:05:35;19.70;99.90
4964;DHT22;2497;47.410;9.740;2023-06-19T04:08:02;19.70;99.90
4964;DHT22;2497;47.410;9.740;2023-06-19T04:10:31;19.70;99.90
4964;DHT22;2497;47.410;9.740;2023-06-19T04:12:58;19.70;99.90
4964;DHT22;2497;47.410;9.740;2023-06-19T04:15:25;19.80;99.90
4964;DHT22;2497;47.410;9.740;2023-06-19T04:17:52;19.80;99.90
4964;DHT22;2497;47.410;9.740;2023-06-19T04:20:19;19.90;99.90
4964;DHT22;2497;47.410;9.740;2023-06-19T04:22:47;19.90;99.90
4964;DHT22;2497;47.410;9.740;2023-06-19T04:25:14;20.00;99.90
4964;DHT22;2497;47.410;9.740;2023-06-19T04:27:44;20.00;99.90
4964;DHT22;2497;47.410;9.740;2023-06-19T04:30:12;20.00;99.90
4964;DHT22;2497;47.410;9.740;2023-06-19T04:32:39;20.00;99.90
4964;DHT22;2497;47.410;9.740;2023-06-19T04:35:07;20.00;99.90
4964;DHT22;2497;47.410;9.740;2023-06-19T04:37:34;20.10;99.90
4964;DHT22;2497;47.410;9.740;2023-06-19T04:40:02;20.10;99.90
4964;DHT22;2497;47.410;9.740;2023-06-19T04:42:30;20.00;99.90
4964;DHT22;2497;47.410;9.740;2023-06-19T04:45:02;20.00;99.90
4964;DHT22;2497;47.410;9.740;2023-06-19T04:47:33;20.10;99.90
4964;DHT22;2497;47.410;9.740;2023-06-19T04:50:02;20.20;99.90
4964;DHT22;2497;47.410;9.740;2023-06-19T04:52:29;20.20;99.90
4964;DHT22;2497;47.410;9.740;2023-06-19T04:54:58;20.20;99.90
4964;DHT22;2497;47.410;9.740;2023-06-19T04:57:25;20.30;99.90
4964;DHT22;2497;47.410;9.740;2023-06-19T04:59:52;20.30;99.90
4964;DHT22;2497;47.410;9.740;2023-06-19T05:02:21;20.50;99.90
4964;DHT22;2497;47.410;9.740;2023-06-19T05:04:49;20.50;99.90
4964;DHT22;2497;47.410;9.740;2023-06-19T05:07:17;20.60;99.90
4964;DHT22;2497;47.410;9.740;2023-06-19T05:09:44;20.70;99.90
4964;DHT22;2497;47.410;9.740;2023-06-19T05:12:11;20.70;99.90
4964;DHT22;2497;47.410;9.740;2023-06-19T05:14:38;20.80;99.90
4964;DHT22;2497;47.410;9.740;2023-06-19T05:17:06;20.80;99.90
4964;DHT22;2497;47.410;9.740;2023-06-19T05:19:36;20.90;99.90
4964;DHT22;2497;47.410;9.740;2023-06-19T05:22:04;20.90;99.90
4964;DHT22;2497;47.410;9.740;2023-06-19T05:24:32;20.90;99.90
4964;DHT22;2497;47.410;9.740;2023-06-19T05:27:00;21.00;99.90
4964;DHT22;2497;47.410;9.740;2023-06-19T05:29:28;21.10;99.90
4964;DHT22;2497;47.410;9.740;2023-06-19T05:31:56;21.20;99.90
4964;DHT22;2497;47.410;9.740;2023-06-19T05:34:23;21.30;99.90
4964;DHT22;2497;47.410;9.740;2023-06-19T05:36:52;21.40;99.90
4964;DHT22;2497;47.410;9.740;2023-06-19T05:39:19;21.50;99.90
4964;DHT22;2497;47.410;9.740;2023-06-19T05:41:46;21.50;99.90
4964;DHT22;2497;47.410;9.740;2023-06-19T05:44:13;21.60;99.90
4964;DHT22;2497;47.410;9.740;2023-06-19T05:46:42;21.70;99.90
4964;DHT22;2497;47.410;9.740;2023-06-19T05:49:09;21.70;99.90
4964;DHT22;2497;47.410;9.740;2023-06-19T05:51:38;21.90;99.90
4964;DHT22;2497;47.410;9.740;2023-06-19T05:54:07;21.90;99.90
4964;DHT22;2497;47.410;9.740;2023-06-19T05:56:35;21.90;99.90
4964;DHT22;2497;47.410;9.740;2023-06-19T05:59:02;22.00;99.90
4964;DHT22;2497;47.410;9.740;2023-06-19T06:01:30;22.00;99.90
4964;DHT22;2497;47.410;9.740;2023-06-19T06:03:58;22.00;99.90
4964;DHT22;2497;47.410;9.740;2023-06-19T06:06:27;22.00;99.90
4964;DHT22;2497;47.410;9.740;2023-06-19T06:08:54;22.00;99.90
4964;DHT22;2497;47.410;9.740;2023-06-19T06:11:23;22.00;99.90
4964;DHT22;2497;47.410;9.740;2023-06-19T06:13:50;22.00;99.90
4964;DHT22;2497;47.410;9.740;2023-06-19T06:16:17;21.90;99.90
4964;DHT22;2497;47.410;9.740;2023-06-19T06:18:45;21.80;99.90
4964;DHT22;2497;47.410;9.740;2023-06-19T06:21:12;21.80;99.90
4964;DHT22;2497;47.410;9.740;2023-06-19T06:23:44;21.80;99.90
4964;DHT22;2497;47.410;9.740;2023-06-19T06:26:14;21.90;99.90
4964;DHT22;2497;47.410;9.740;2023-06-19T06:28:43;22.00;99.90
4964;DHT22;2497;47.410;9.740;2023-06-19T06:31:10;22.10;99.90
4964;DHT22;2497;47.410;9.740;2023-06-19T06:33:37;22.10;99.90
4964;DHT22;2497;47.410;9.740;2023-06-19T06:36:04;22.00;99.90
4964;DHT22;2497;47.410;9.740;2023-06-19T06:38:35;22.00;99.90
4964;DHT22;2497;47.410;9.740;2023-06-19T06:41:02;22.10;99.90
4964;DHT22;2497;47.410;9.740;2023-06-19T06:43:33;22.10;99.90
4964;DHT22;2497;47.410;9.740;2023-06-19T06:46:02;22.10;99.90
4964;DHT22;2497;47.410;9.740;2023-06-19T06:48:31;22.10;99.90
4964;DHT22;2497;47.410;9.740;2023-06-19T06:50:58;22.30;99.90
4964;DHT22;2497;47.410;9.740;2023-06-19T06:53:27;22.40;99.90
4964;DHT22;2497;47.410;9.740;2023-06-19T06:55:54;22.40;99.90
4964;DHT22;2497;47.410;9.740;2023-06-19T06:58:22;22.50;99.90
4964;DHT22;2497;47.410;9.740;2023-06-19T07:00:49;22.50;99.90
4964;DHT22;2497;47.410;9.740;2023-06-19T07:03:20;22.50;99.90
4964;DHT22;2497;47.410;9.740;2023-06-19T07:05:48;22.50;99.90
4964;DHT22;2497;47.410;9.740;2023-06-19T07:08:15;22.60;99.90
4964;DHT22;2497;47.410;9.740;2023-06-19T07:10:42;22.80;99.90
4964;DHT22;2497;47.410;9.740;2023-06-19T07:13:09;23.10;99.90
4964;DHT22;2497;47.410;9.740;2023-06-19T07:15:37;23.40;99.90
4964;DHT22;2497;47.410;9.740;2023-06-19T07:18:06;23.60;99.90
4964;DHT22;2497;47.410;9.740;2023-06-19T07:20:34;23.80;99.90
4964;DHT22;2497;47.410;9.740;2023-06-19T07:23:01;24.00;99.90
4964;DHT22;2497;47.410;9.740;2023-06-19T07:25:28;24.20;99.90
4964;DHT22;2497;47.410;9.740;2023-06-19T07:27:56;24.30;99.90
4964;DHT22;2497;47.410;9.740;2023-06-19T07:30:23;24.60;99.90
4964;DHT22;2497;47.410;9.740;2023-06-19T07:32:51;24.80;99.90
4964;DHT22;2497;47.410;9.740;2023-06-19T07:35:18;25.00;99.90
4964;DHT22;2497;47.410;9.740;2023-06-19T07:37:47;25.20;99.90
4964;DHT22;2497;47.410;9.740;2023-06-19T07:40:14;25.40;99.90
4964;DHT22;2497;47.410;9.740;2023-06-19T07:42:41;25.60;99.90
4964;DHT22;2497;47.410;9.740;2023-06-19T07:45:09;25.80;99.90
4964;DHT22;2497;47.410;9.740;2023-06-19T07:47:36;26.20;99.90
4964;DHT22;2497;47.410;9.740;2023-06-19T07:50:07;26.40;99.90
4964;DHT22;2497;47.410;9.740;2023-06-19T07:52:34;27.00;99.90
4964;DHT22;2497;47.410;9.740;2023-06-19T07:55:03;27.60;99.90
4964;DHT22;2497;47.410;9.740;2023-06-19T07:57:30;27.70;99.90
4964;DHT22;2497;47.410;9.740;2023-06-19T07:59:57;27.80;99.90
4964;DHT22;2497;47.410;9.740;2023-06-19T08:02:24;28.10;99.90
4964;DHT22;2497;47.410;9.740;2023-06-19T08:04:52;28.20;99.90
4964;DHT22;2497;47.410;9.740;2023-06-19T08:07:20;28.60;99.90
4964;DHT22;2497;47.410;9.740;2023-06-19T08:09:47;29.20;99.90
4964;DHT22;2497;47.410;9.740;2023-06-19T08:12:15;29.50;99.90
4964;DHT22;2497;47.410;9.740;2023-06-19T08:14:45;29.60;99.90
4964;DHT22;2497;47.410;9.740;2023-06-19T08:17:12;29.30;99.90
4964;DHT22;2497;47.410;9.740;2023-06-19T08:19:39;28.80;99.90
4964;DHT22;2497;47.410;9.740;2023-06-19T08:22:08;28.40;99.90
4964;DHT22;2497;47.410;9.740;2023-06-19T08:24:36;27.80;99.90
4964;DHT22;2497;47.410;9.740;2023-06-19T08:27:07;27.50;99.90
4964;DHT22;2497;47.410;9.740;2023-06-19T08:29:36;27.00;99.90
4964;DHT22;2497;47.410;9.740;2023-06-19T08:32:04;26.60;99.90
4964;DHT22;2497;47.410;9.740;2023-06-19T08:34:36;26.50;99.90
4964;DHT22;2497;47.410;9.740;2023-06-19T08:37:06;26.50;99.90
4964;DHT22;2497;47.410;9.740;2023-06-19T08:39:33;26.50;99.90
4964;DHT22;2497;47.410;9.740;2023-06-19T08:42:01;26.50;99.90
4964;DHT22;2497;47.410;9.740;2023-06-19T08:44:28;26.50;99.90
4964;DHT22;2497;47.410;9.740;2023-06-19T08:46:57;26.40;99.90
4964;DHT22;2497;47.410;9.740;2023-06-19T08:49:25;26.40;99.90
4964;DHT22;2497;47.410;9.740;2023-06-19T08:51:52;26.50;99.90
4964;DHT22;2497;47.410;9.740;2023-06-19T08:54:19;26.80;99.90
4964;DHT22;2497;47.410;9.740;2023-06-19T08:56:49;27.20;99.90
4964;DHT22;2497;47.410;9.740;2023-06-19T08:59:22;27.40;99.90
4964;DHT22;2497;47.410;9.740;2023-06-19T09:01:50;27.70;99.90
4964;DHT22;2497;47.410;9.740;2023-06-19T09:04:20;27.90;99.90
4964;DHT22;2497;47.410;9.740;2023-06-19T09:06:48;28.10;99.90
4964;DHT22;2497;47.410;9.740;2023-06-19T09:09:19;28.70;99.90
4964;DHT22;2497;47.410;9.740;2023-06-19T09:11:57;28.80;99.90
4964;DHT22;2497;47.410;9.740;2023-06-19T09:14:30;28.50;99.90
4964;DHT22;2497;47.410;9.740;2023-06-19T09:16:58;28.80;99.90
4964;DHT22;2497;47.410;9.740;2023-06-19T09:19:26;29.60;99.90
4964;DHT22;2497;47.410;9.740;2023-06-19T09:22:01;29.10;99.90
4964;DHT22;2497;47.410;9.740;2023-06-19T09:24:34;29.80;99.90
4964;DHT22;2497;47.410;9.740;2023-06-19T09:27:09;29.70;99.90
4964;DHT22;2497;47.410;9.740;2023-06-19T09:29:39;29.30;99.90
4964;DHT22;2497;47.410;9.740;2023-06-19T09:32:17;29.60;99.90
4964;DHT22;2497;47.410;9.740;2023-06-19T09:34:46;30.10;99.90
4964;DHT22;2497;47.410;9.740;2023-06-19T09:37:15;30.20;99.90
4964;DHT22;2497;47.410;9.740;2023-06-19T09:39:45;30.00;99.90
4964;DHT22;2497;47.410;9.740;2023-06-19T09:42:13;29.70;99.90
4964;DHT22;2497;47.410;9.740;2023-06-19T09:44:42;29.90;99.90
4964;DHT22;2497;47.410;9.740;2023-06-19T09:47:15;29.90;99.90
4964;DHT22;2497;47.410;9.740;2023-06-19T09:49:55;29.80;99.90
4964;DHT22;2497;47.410;9.740;2023-06-19T09:52:25;29.60;99.90
4964;DHT22;2497;47.410;9.740;2023-06-19T09:54:55;29.90;99.90
4964;DHT22;2497;47.410;9.740;2023-06-19T09:57:23;29.50;99.90
4964;DHT22;2497;47.410;9.740;2023-06-19T09:59:53;29.80;99.90
4964;DHT22;2497;47.410;9.740;2023-06-19T10:02:22;29.80;99.90
4964;DHT22;2497;47.410;9.740;2023-06-19T10:04:53;29.70;99.90
4964;DHT22;2497;47.410;9.740;2023-06-19T10:07:21;29.30;99.90
4964;DHT22;2497;47.410;9.740;2023-06-19T10:09:57;29.00;99.90
4964;DHT22;2497;47.410;9.740;2023-06-19T10:12:38;29.10;99.90
4964;DHT22;2497;47.410;9.740;2023-06-19T10:15:12;29.10;99.90
4964;DHT22;2497;47.410;9.740;2023-06-19T10:17:43;28.90;99.90
4964;DHT22;2497;47.410;9.740;2023-06-19T10:20:22;28.80;99.90
4964;DHT22;2497;47.410;9.740;2023-06-19T10:23:02;28.60;99.90
4964;DHT22;2497;47.410;9.740;2023-06-19T10:25:36;28.40;99.90
4964;DHT22;2497;47.410;9.740;2023-06-19T10:28:22;28.20;99.90
4964;DHT22;2497;47.410;9.740;2023-06-19T10:30:54;28.00;99.90
4964;DHT22;2497;47.410;9.740;2023-06-19T10:35:51;27.90;99.90
4964;DHT22;2497;47.410;9.740;2023-06-19T10:38:20;28.10;99.90
4964;DHT22;2497;47.410;9.740;2023-06-19T10:40:47;28.20;99.90
4964;DHT22;2497;47.410;9.740;2023-06-19T10:43:20;28.20;99.90
4964;DHT22;2497;47.410;9.740;2023-06-19T10:45:48;28.40;99.90
4964;DHT22;2497;47.410;9.740;2023-06-19T10:48:19;28.80;99.90
4964;DHT22;2497;47.410;9.740;2023-06-19T10:50:47;29.50;99.90
4964;DHT22;2497;47.410;9.740;2023-06-19T10:53:25;29.90;99.90
4964;DHT22;2497;47.410;9.740;2023-06-19T10:55:57;30.40;99.90
4964;DHT22;2497;47.410;9.740;2023-06-19T10:58:26;30.50;99.90
4964;DHT22;2497;47.410;9.740;2023-06-19T11:00:53;31.10;99.90
4964;DHT22;2497;47.410;9.740;2023-06-19T11:03:26;31.10;99.90
4964;DHT22;2497;47.410;9.740;2023-06-19T11:05:58;31.60;99.90
4964;DHT22;2497;47.410;9.740;2023-06-19T11:08:30;31.30;99.90
4964;DHT22;2497;47.410;9.740;2023-06-19T11:10:57;31.30;99.90
4964;DHT22;2497;47.410;9.740;2023-06-19T11:13:29;31.50;99.90
4964;DHT22;2497;47.410;9.740;2023-06-19T11:16:00;31.60;99.90
4964;DHT22;2497;47.410;9.740;2023-06-19T11:18:27;31.60;99.90
4964;DHT22;2497;47.410;9.740;2023-06-19T11:20:55;31.80;99.90
4964;DHT22;2497;47.410;9.740;2023-06-19T11:23:28;31.90;99.90
4964;DHT22;2497;47.410;9.740;2023-06-19T11:26:02;32.10;99.90
4964;DHT22;2497;47.410;9.740;2023-06-19T11:28:30;32.30;99.90
4964;DHT22;2497;47.410;9.740;2023-06-19T11:30:59;32.50;99.90
4964;DHT22;2497;47.410;9.740;2023-06-19T11:33:27;32.60;99.90
4964;DHT22;2497;47.410;9.740;2023-06-19T11:35:58;32.70;99.90
4964;DHT22;2497;47.410;9.740;2023-06-19T11:38:30;32.70;99.90
4964;DHT22;2497;47.410;9.740;2023-06-19T11:40:59;32.80;99.90
4964;DHT22;2497;47.410;9.740;2023-06-19T11:43:28;33.00;99.90
4964;DHT22;2497;47.410;9.740;2023-06-19T11:46:02;32.20;99.90
4964;DHT22;2497;47.410;9.740;2023-06-19T11:48:29;32.20;99.90
4964;DHT22;2497;47.410;9.740;2023-06-19T11:50:56;31.90;99.90
4964;DHT22;2497;47.410;9.740;2023-06-19T11:53:24;32.20;99.90
4964;DHT22;2497;47.410;9.740;2023-06-19T11:55:53;32.20;99.90
4964;DHT22;2497;47.410;9.740;2023-06-19T11:58:20;32.10;99.90
4964;DHT22;2497;47.410;9.740;2023-06-19T12:00:48;32.20;99.90
4964;DHT22;2497;47.410;9.740;2023-06-19T12:03:15;32.60;99.90
4964;DHT22;2497;47.410;9.740;2023-06-19T12:05:53;33.00;99.90
4964;DHT22;2497;47.410;9.740;2023-06-19T12:08:22;33.20;99.90
4964;DHT22;2497;47.410;9.740;2023-06-19T12:10:53;33.20;99.90
4964;DHT22;2497;47.410;9.740;2023-06-19T12:13:32;33.30;99.90
4964;DHT22;2497;47.410;9.740;2023-06-19T12:15:59;33.10;99.90
4964;DHT22;2497;47.410;9.740;2023-06-19T12:18:27;33.20;99.90
4964;DHT22;2497;47.410;9.740;2023-06-19T12:20:55;33.30;99.90
4964;DHT22;2497;47.410;9.740;2023-06-19T12:23:30;33.40;99.90
4964;DHT22;2497;47.410;9.740;2023-06-19T12:26:01;33.40;99.90
4964;DHT22;2497;47.410;9.740;2023-06-19T12:28:32;33.30;99.90
4964;DHT22;2497;47.410;9.740;2023-06-19T12:31:06;33.20;99.90
4964;DHT22;2497;47.410;9.740;2023-06-19T12:33:51;33.10;99.90
4964;DHT22;2497;47.410;9.740;2023-06-19T12:36:19;32.90;99.90
4964;DHT22;2497;47.410;9.740;2023-06-19T12:38:49;33.10;99.90
4964;DHT22;2497;47.410;9.740;2023-06-19T12:41:29;32.70;99.90
4964;DHT22;2497;47.410;9.740;2023-06-19T12:44:03;32.70;99.90
4964;DHT22;2497;47.410;9.740;2023-06-19T12:46:40;32.60;99.90
4964;DHT22;2497;47.410;9.740;2023-06-19T12:49:07;32.80;99.90
4964;DHT22;2497;47.410;9.740;2023-06-19T12:51:47;32.80;99.90
4964;DHT22;2497;47.410;9.740;2023-06-19T12:54:19;32.80;99.90
4964;DHT22;2497;47.410;9.740;2023-06-19T12:56:48;32.50;99.90
4964;DHT22;2497;47.410;9.740;2023-06-19T12:59:20;32.60;99.90
4964;DHT22;2497;47.410;9.740;2023-06-19T13:01:47;32.70;99.90
4964;DHT22;2497;47.410;9.740;2023-06-19T13:04:16;32.40;99.90
4964;DHT22;2497;47.410;9.740;2023-06-19T13:06:49;32.50;99.90
4964;DHT22;2497;47.410;9.740;2023-06-19T13:09:22;32.20;99.90
4964;DHT22;2497;47.410;9.740;2023-06-19T13:11:51;31.90;99.90
4964;DHT22;2497;47.410;9.740;2023-06-19T13:14:19;31.40;99.90
4964;DHT22;2497;47.410;9.740;2023-06-19T13:16:49;30.80;99.90
4964;DHT22;2497;47.410;9.740;2023-06-19T13:19:17;30.60;99.90
4964;DHT22;2497;47.410;9.740;2023-06-19T13:21:50;30.20;99.90
4964;DHT22;2497;47.410;9.740;2023-06-19T13:24:22;30.10;99.90
4964;DHT22;2497;47.410;9.740;2023-06-19T13:26:53;30.80;99.90
4964;DHT22;2497;47.410;9.740;2023-06-19T13:29:20;31.60;99.90
4964;DHT22;2497;47.410;9.740;2023-06-19T13:31:49;32.20;99.90
4964;DHT22;2497;47.410;9.740;2023-06-19T13:34:18;32.40;99.90
4964;DHT22;2497;47.410;9.740;2023-06-19T13:36:47;32.20;99.90
4964;DHT22;2497;47.410;9.740;2023-06-19T13:39:23;31.90;99.90
4964;DHT22;2497;47.410;9.740;2023-06-19T13:41:50;31.80;99.90
4964;DHT22;2497;47.410;9.740;2023-06-19T13:44:18;31.80;99.90
4964;DHT22;2497;47.410;9.740;2023-06-19T13:46:51;31.90;99.90
4964;DHT22;2497;47.410;9.740;2023-06-19T13:49:19;32.10;99.90
4964;DHT22;2497;47.410;9.740;2023-06-19T13:51:48;32.30;99.90
4964;DHT22;2497;47.410;9.740;2023-06-19T13:54:22;32.30;99.90
4964;DHT22;2497;47.410;9.740;2023-06-19T13:56:50;32.40;99.90
4964;DHT22;2497;47.410;9.740;2023-06-19T13:59:21;32.50;99.90
4964;DHT22;2497;47.410;9.740;2023-06-19T14:01:50;32.30;99.90
4964;DHT22;2497;47.410;9.740;2023-06-19T14:04:19;32.50;99.90
4964;DHT22;2497;47.410;9.740;2023-06-19T14:06:47;32.80;99.90
4964;DHT22;2497;47.410;9.740;2023-06-19T14:09:16;32.80;99.90
4964;DHT22;2497;47.410;9.740;2023-06-19T14:11:47;32.80;99.90
4964;DHT22;2497;47.410;9.740;2023-06-19T14:14:16;32.80;99.90
4964;DHT22;2497;47.410;9.740;2023-06-19T14:16:54;32.90;99.90
4964;DHT22;2497;47.410;9.740;2023-06-19T14:19:23;33.10;99.90
4964;DHT22;2497;47.410;9.740;2023-06-19T14:21:51;33.20;99.90
4964;DHT22;2497;47.410;9.740;2023-06-19T14:24:20;33.30;99.90
4964;DHT22;2497;47.410;9.740;2023-06-19T14:26:51;33.40;99.90
4964;DHT22;2497;47.410;9.740;2023-06-19T14:29:19;33.20;99.90
4964;DHT22;2497;47.410;9.740;2023-06-19T14:31:50;33.20;99.90
4964;DHT22;2497;47.410;9.740;2023-06-19T14:34:18;33.10;99.90
4964;DHT22;2497;47.410;9.740;2023-06-19T14:36:46;33.00;99.90
4964;DHT22;2497;47.410;9.740;2023-06-19T14:39:16;32.80;99.90
4964;DHT22;2497;47.410;9.740;2023-06-19T14:41:49;32.90;99.90
4964;DHT22;2497;47.410;9.740;2023-06-19T14:44:21;33.00;99.90
4964;DHT22;2497;47.410;9.740;2023-06-19T14:46:51;32.90;99.90
4964;DHT22;2497;47.410;9.740;2023-06-19T14:49:21;32.60;99.90
4964;DHT22;2497;47.410;9.740;2023-06-19T14:52:00;32.50;99.90
4964;DHT22;2497;47.410;9.740;2023-06-19T14:54:29;32.50;99.90
4964;DHT22;2497;47.410;9.740;2023-06-19T14:57:03;32.40;99.90
4964;DHT22;2497;47.410;9.740;2023-06-19T14:59:31;32.30;99.90
4964;DHT22;2497;47.410;9.740;2023-06-19T15:02:00;32.40;99.90
4964;DHT22;2497;47.410;9.740;2023-06-19T15:04:40;32.30;99.90
4964;DHT22;2497;47.410;9.740;2023-06-19T15:07:10;32.10;99.90
4964;DHT22;2497;47.410;9.740;2023-06-19T15:09:41;32.10;99.90
4964;DHT22;2497;47.410;9.740;2023-06-19T15:12:11;32.00;99.90
4964;DHT22;2497;47.410;9.740;2023-06-19T15:14:40;31.90;99.90
4964;DHT22;2497;47.410;9.740;2023-06-19T15:17:11;31.90;99.90
4964;DHT22;2497;47.410;9.740;2023-06-19T15:19:42;31.80;99.90
4964;DHT22;2497;47.410;9.740;2023-06-19T15:22:09;31.50;99.90
4964;DHT22;2497;47.410;9.740;2023-06-19T15:24:39;31.30;99.90
4964;DHT22;2497;47.410;9.740;2023-06-19T15:27:06;31.00;99.90
4964;DHT22;2497;47.410;9.740;2023-06-19T15:29:51;30.80;99.90
4964;DHT22;2497;47.410;9.740;2023-06-19T15:32:22;30.60;99.90
4964;DHT22;2497;47.410;9.740;2023-06-19T15:34:50;30.50;99.90
4964;DHT22;2497;47.410;9.740;2023-06-19T15:37:23;30.30;99.90
4964;DHT22;2497;47.410;9.740;2023-06-19T15:39:51;30.10;99.90
4964;DHT22;2497;47.410;9.740;2023-06-19T15:42:23;30.00;99.90
4964;DHT22;2497;47.410;9.740;2023-06-19T15:44:54;29.80;99.90
4964;DHT22;2497;47.410;9.740;2023-06-19T15:47:40;29.80;99.90
4964;DHT22;2497;47.410;9.740;2023-06-19T15:50:10;29.80;99.90
4964;DHT22;2497;47.410;9.740;2023-06-19T15:52:41;29.70;99.90
4964;DHT22;2497;47.410;9.740;2023-06-19T15:55:11;29.50;99.90
4964;DHT22;2497;47.410;9.740;2023-06-19T15:57:40;29.50;99.90
4964;DHT22;2497;47.410;9.740;2023-06-19T16:00:08;29.50;99.90
4964;DHT22;2497;47.410;9.740;2023-06-19T16:02:41;29.40;99.90
4964;DHT22;2497;47.410;9.740;2023-06-19T16:05:12;29.40;99.90
4964;DHT22;2497;47.410;9.740;2023-06-19T16:07:40;29.30;99.90
4964;DHT22;2497;47.410;9.740;2023-06-19T16:10:08;29.30;99.90
4964;DHT22;2497;47.410;9.740;2023-06-19T16:12:35;29.20;99.90
4964;DHT22;2497;47.410;9.740;2023-06-19T16:15:06;29.10;99.90
4964;DHT22;2497;47.410;9.740;2023-06-19T16:17:34;29.00;99.90
4964;DHT22;2497;47.410;9.740;2023-06-19T16:20:05;29.00;99.90